createdAt,value
2023-08-11T00:01:36.701Z,43.01
2023-08-11T00:04:05.662Z,43.28
2023-08-11T00:06:33.748Z,43.33
2023-08-11T00:09:01.816Z,43.11
2023-08-11T00:11:31.719Z,43.11
2023-08-11T00:13:59.738Z,43.15
2023-08-11T00:16:27.826Z,42.99
2023-08-11T00:18:56.174Z,42.84
2023-08-11T00:21:24.790Z,42.78
2023-08-11T00:23:52.801Z,43.63
2023-08-11T00:26:21.099Z,43.66
2023-08-11T00:28:50.526Z,43.70
2023-08-11T00:31:19.867Z,43.45
2023-08-11T00:33:52.839Z,43.25
2023-08-11T00:36:21.841Z,42.87
2023-08-11T00:38:50.731Z,42.49
2023-08-11T00:41:18.807Z,42.79
2023-08-11T00:43:46.965Z,42.81
2023-08-11T00:46:17.082Z,43.12
2023-08-11T00:48:45.283Z,42.89
2023-08-11T00:51:16.957Z,42.87
2023-08-11T00:53:46.850Z,43.17
2023-08-11T00:56:15.953Z,43.77
2023-08-11T00:58:45.048Z,44.61
2023-08-11T01:01:13.389Z,44.92
2023-08-11T01:03:44.388Z,45.18
2023-08-11T01:06:22.692Z,45.84
2023-08-11T01:09:00.974Z,47.91
2023-08-11T01:11:35.594Z,47.50
2023-08-11T01:14:12.130Z,46.68
2023-08-11T01:16:40.253Z,47.78
2023-08-11T01:19:12.686Z,46.32
2023-08-11T01:21:43.073Z,47.30
2023-08-11T01:24:12.795Z,46.66
2023-08-11T01:26:41.014Z,46.54
2023-08-11T01:29:09.360Z,45.90
2023-08-11T01:31:37.646Z,45.44
2023-08-11T01:34:06.047Z,45.06
2023-08-11T01:36:34.347Z,44.20
2023-08-11T01:39:02.706Z,44.34
2023-08-11T01:41:32.407Z,44.00
2023-08-11T01:44:01.427Z,45.00
2023-08-11T01:46:31.947Z,45.53
2023-08-11T01:49:00.700Z,45.92
2023-08-11T01:51:29.672Z,46.23
2023-08-11T01:53:58.261Z,46.61
2023-08-11T01:56:26.610Z,46.30
2023-08-11T01:58:58.337Z,47.16
2023-08-11T02:01:26.708Z,47.90
2023-08-11T02:03:55.041Z,46.90
2023-08-11T02:06:23.246Z,47.21
2023-08-11T02:08:51.245Z,47.26
2023-08-11T02:11:19.520Z,46.93
2023-08-11T02:13:47.662Z,46.56
2023-08-11T02:16:17.367Z,46.22
2023-08-11T02:18:45.551Z,46.14
2023-08-11T02:21:13.603Z,46.47
2023-08-11T02:23:41.864Z,46.79
2023-08-11T02:26:09.937Z,46.43
2023-08-11T02:28:38.063Z,46.36
2023-08-11T02:31:06.339Z,46.65
2023-08-11T02:33:35.699Z,46.72
2023-08-11T02:36:05.186Z,46.73
2023-08-11T02:38:34.126Z,46.30
2023-08-11T02:41:02.349Z,46.18
2023-08-11T02:43:30.348Z,46.11
2023-08-11T02:45:58.720Z,46.07
2023-08-11T02:48:26.793Z,46.06
2023-08-11T02:50:56.168Z,45.86
2023-08-11T02:53:24.832Z,45.50
2023-08-11T02:55:53.050Z,45.11
2023-08-11T02:58:21.115Z,45.04
2023-08-11T03:00:51.067Z,45.13
2023-08-11T03:03:19.349Z,44.91
2023-08-11T03:05:47.499Z,44.84
2023-08-11T03:08:17.220Z,44.70
2023-08-11T03:10:55.932Z,45.04
2023-08-11T03:13:29.976Z,45.39
2023-08-11T03:16:00.046Z,45.34
2023-08-11T03:18:28.679Z,46.00
2023-08-11T03:21:09.766Z,46.11
2023-08-11T03:23:46.982Z,46.19
2023-08-11T03:26:15.548Z,46.41
2023-08-11T03:28:43.735Z,46.28
2023-08-11T03:31:12.230Z,46.04
2023-08-11T03:33:40.745Z,46.10
2023-08-11T03:36:09.564Z,45.88
2023-08-11T03:38:38.088Z,46.14
2023-08-11T03:41:07.679Z,45.71
2023-08-11T03:43:35.764Z,45.74
2023-08-11T03:46:04.089Z,46.08
2023-08-11T03:48:32.305Z,45.90
2023-08-11T03:51:01.278Z,45.66
2023-08-11T03:53:31.454Z,45.42
2023-08-11T03:55:59.811Z,46.15
2023-08-11T03:58:30.306Z,45.71
2023-08-11T04:00:59.237Z,46.19
2023-08-11T04:03:29.418Z,46.17
2023-08-11T04:05:57.980Z,46.10
2023-08-11T04:08:27.131Z,46.35
2023-08-11T04:10:57.107Z,46.72
2023-08-11T04:13:25.147Z,46.38
2023-08-11T04:15:54.572Z,46.10
2023-08-11T04:18:22.951Z,46.32
2023-08-11T04:20:51.018Z,46.37
2023-08-11T04:23:19.132Z,46.76
2023-08-11T04:25:47.448Z,46.54
2023-08-11T04:28:16.381Z,46.56
2023-08-11T04:30:45.057Z,46.70
2023-08-11T04:33:15.433Z,46.53
2023-08-11T04:35:43.859Z,46.61
2023-08-11T04:38:12.485Z,46.13
2023-08-11T04:40:41.309Z,46.56
2023-08-11T04:43:09.680Z,46.19
2023-08-11T04:45:38.041Z,47.02
2023-08-11T04:48:07.025Z,46.63
2023-08-11T04:50:36.878Z,46.46
2023-08-11T04:53:05.274Z,46.85
2023-08-11T04:55:34.260Z,46.94
2023-08-11T04:58:03.175Z,47.35
2023-08-11T05:00:31.542Z,46.56
2023-08-11T05:02:59.981Z,46.59
2023-08-11T05:05:28.478Z,46.75
2023-08-11T05:07:57.902Z,46.75
2023-08-11T05:10:26.303Z,46.57
2023-08-11T05:12:54.378Z,46.48
2023-08-11T05:15:22.583Z,46.63
2023-08-11T05:17:51.182Z,46.50
2023-08-11T05:20:19.509Z,47.01
2023-08-11T05:22:48.936Z,46.70
2023-08-11T05:25:19.141Z,46.58
2023-08-11T05:27:48.586Z,46.81
2023-08-11T05:30:16.788Z,46.59
2023-08-11T05:32:45.196Z,46.86
2023-08-11T05:35:14.184Z,46.83
2023-08-11T05:37:42.378Z,46.79
2023-08-11T05:40:11.882Z,46.87
2023-08-11T05:42:41.314Z,46.83
2023-08-11T05:45:10.304Z,48.02
2023-08-11T05:47:38.634Z,48.02
2023-08-11T05:50:08.045Z,48.03
2023-08-11T05:52:36.083Z,48.29
2023-08-11T05:55:04.530Z,47.63
2023-08-11T05:57:33.066Z,47.77
2023-08-11T06:00:04.411Z,47.62
2023-08-11T06:02:41.176Z,47.78
2023-08-11T06:05:10.453Z,47.37
2023-08-11T06:07:39.855Z,47.35
2023-08-11T06:10:10.665Z,47.59
2023-08-11T06:12:38.757Z,47.45
2023-08-11T06:15:09.975Z,47.31
2023-08-11T06:17:38.795Z,47.44
2023-08-11T06:20:11.270Z,46.91
2023-08-11T06:22:39.555Z,46.71
2023-08-11T06:25:08.152Z,46.82
2023-08-11T06:27:36.208Z,46.79
2023-08-11T06:30:05.492Z,46.71
2023-08-11T06:32:35.111Z,46.46
2023-08-11T06:35:04.203Z,46.14
2023-08-11T06:37:32.476Z,46.06
2023-08-11T06:40:00.635Z,46.03
2023-08-11T06:42:28.827Z,45.74
2023-08-11T06:44:57.353Z,45.79
2023-08-11T06:47:25.887Z,45.71
2023-08-11T06:49:55.553Z,45.69
2023-08-11T06:52:23.844Z,45.66
2023-08-11T06:54:51.856Z,45.43
2023-08-11T06:57:21.530Z,45.22
2023-08-11T06:59:51.084Z,45.11
2023-08-11T07:02:19.099Z,45.12
2023-08-11T07:04:47.941Z,45.02
2023-08-11T07:07:17.628Z,44.82
2023-08-11T07:09:45.712Z,44.76
2023-08-11T07:12:13.950Z,44.72
2023-08-11T07:14:43.340Z,44.51
2023-08-11T07:17:12.034Z,44.27
2023-08-11T07:19:40.376Z,44.03
2023-08-11T07:22:08.652Z,43.97
2023-08-11T07:24:38.122Z,43.92
2023-08-11T07:27:06.610Z,43.57
2023-08-11T07:29:35.145Z,43.68
2023-08-11T07:32:05.735Z,43.43
2023-08-11T07:34:33.828Z,43.40
2023-08-11T07:37:02.308Z,43.21
2023-08-11T07:39:31.387Z,43.27
2023-08-11T07:42:03.987Z,43.13
2023-08-11T07:44:34.760Z,42.91
2023-08-11T07:47:03.846Z,42.89
2023-08-11T07:49:32.702Z,42.74
2023-08-11T07:52:00.929Z,42.68
2023-08-11T07:54:29.279Z,42.40
2023-08-11T07:56:57.693Z,42.13
2023-08-11T07:59:27.136Z,41.92
2023-08-11T08:01:55.377Z,41.57
2023-08-11T08:04:23.808Z,41.76
2023-08-11T08:06:52.367Z,41.46
2023-08-11T08:09:20.533Z,41.31
2023-08-11T08:11:49.958Z,41.19
2023-08-11T08:14:18.085Z,40.99
2023-08-11T08:16:47.544Z,41.02
2023-08-11T08:19:18.105Z,40.71
2023-08-11T08:21:47.709Z,40.40
2023-08-11T08:24:16.314Z,39.67
2023-08-11T08:26:45.644Z,40.31
2023-08-11T08:29:13.718Z,40.29
2023-08-11T08:31:42.241Z,40.05
2023-08-11T08:34:11.825Z,39.95
2023-08-11T08:36:39.822Z,39.86
2023-08-11T08:39:09.662Z,39.71
2023-08-11T08:41:40.410Z,39.59
2023-08-11T08:44:08.968Z,39.43
2023-08-11T08:46:38.681Z,39.55
2023-08-11T08:49:16.791Z,39.51
2023-08-11T08:51:46.282Z,37.57
2023-08-11T08:54:14.526Z,39.27
2023-08-11T08:56:42.737Z,39.32
2023-08-11T08:59:11.329Z,39.09
2023-08-11T09:01:39.894Z,38.73
2023-08-11T09:04:10.415Z,38.63
2023-08-11T09:06:40.590Z,38.71
2023-08-11T09:09:11.484Z,38.30
2023-08-11T09:11:40.333Z,38.68
2023-08-11T09:14:10.055Z,38.61
2023-08-11T09:16:39.247Z,38.34
2023-08-11T09:19:09.761Z,38.06
2023-08-11T09:23:08.680Z,37.12
2023-08-11T09:25:36.926Z,37.12
2023-08-11T09:28:05.564Z,38.05
2023-08-11T09:30:34.582Z,38.06
2023-08-11T09:33:04.574Z,38.04
2023-08-11T09:35:33.122Z,37.81
2023-08-11T09:38:01.778Z,37.28
2023-08-11T09:40:31.396Z,37.59
2023-08-11T09:42:59.775Z,37.10
2023-08-11T09:45:28.608Z,37.39
2023-08-11T09:47:57.083Z,37.56
2023-08-11T09:50:28.832Z,37.49
2023-08-11T09:53:00.182Z,36.67
2023-08-11T09:55:32.392Z,37.03
2023-08-11T09:58:02.045Z,36.73
2023-08-11T10:00:31.879Z,37.14
2023-08-11T10:03:03.518Z,37.13
2023-08-11T10:05:35.233Z,35.25
2023-08-11T10:08:05.572Z,36.93
2023-08-11T10:10:39.382Z,36.87
2023-08-11T10:13:15.128Z,34.64
2023-08-11T10:15:44.264Z,37.04
2023-08-11T10:18:12.988Z,36.87
2023-08-11T10:20:41.604Z,36.37
2023-08-11T10:23:12.846Z,36.60
2023-08-11T10:25:42.729Z,36.53
2023-08-11T10:28:13.566Z,36.35
2023-08-11T10:30:42.224Z,36.40
2023-08-11T10:33:11.066Z,36.65
2023-08-11T10:35:51.363Z,36.12
2023-08-11T10:38:26.945Z,32.79
2023-08-11T10:41:02.128Z,34.50
2023-08-11T10:43:33.546Z,34.46
2023-08-11T10:46:23.548Z,35.74
2023-08-11T10:48:53.092Z,33.66
2023-08-11T10:51:33.106Z,35.38
2023-08-11T10:54:12.259Z,33.87
2023-08-11T10:56:43.259Z,34.07
2023-08-11T10:59:17.026Z,35.32
2023-08-11T11:01:47.370Z,34.63
2023-08-11T11:04:16.845Z,35.39
2023-08-11T11:06:46.791Z,35.50
2023-08-11T11:09:15.892Z,35.02
2023-08-11T11:11:45.820Z,35.30
2023-08-11T11:14:15.239Z,35.36
2023-08-11T11:16:44.097Z,34.04
2023-08-11T11:19:12.316Z,33.54
2023-08-11T11:21:41.565Z,34.35
2023-08-11T11:24:10.871Z,34.54
2023-08-11T11:26:39.263Z,34.42
2023-08-11T11:29:08.627Z,34.70
2023-08-11T11:31:39.327Z,34.43
2023-08-11T11:34:07.896Z,34.86
2023-08-11T11:36:36.337Z,33.89
2023-08-11T11:39:06.522Z,34.71
2023-08-11T11:41:34.613Z,34.79
2023-08-11T11:44:03.088Z,34.72
2023-08-11T11:46:34.635Z,34.86
2023-08-11T11:49:09.581Z,32.57
2023-08-11T11:51:44.341Z,34.77
2023-08-11T11:54:12.851Z,34.48
2023-08-11T11:56:47.180Z,33.66
2023-08-11T11:59:23.179Z,34.85
2023-08-11T12:01:52.483Z,34.80
2023-08-11T12:04:20.869Z,34.45
2023-08-11T12:06:48.888Z,34.25
2023-08-11T12:09:16.920Z,34.18
2023-08-11T12:11:45.282Z,34.26
2023-08-11T12:14:14.534Z,34.23
2023-08-11T12:16:43.440Z,34.32
2023-08-11T12:19:13.706Z,33.53
2023-08-11T12:21:41.708Z,34.08
2023-08-11T12:24:14.514Z,34.39
2023-08-11T12:26:42.929Z,33.41
2023-08-11T12:29:10.940Z,33.55
2023-08-11T12:31:39.537Z,34.09
2023-08-11T12:34:07.807Z,33.80
2023-08-11T12:36:37.198Z,33.43
2023-08-11T12:39:08.318Z,33.93
2023-08-11T12:41:36.993Z,33.84
2023-08-11T12:44:05.446Z,33.93
2023-08-11T12:46:33.499Z,33.73
2023-08-11T12:49:01.815Z,33.33
2023-08-11T12:51:29.896Z,33.75
2023-08-11T12:53:59.279Z,33.63
2023-08-11T12:56:27.641Z,33.53
2023-08-11T12:58:55.692Z,33.35
2023-08-11T13:01:24.299Z,33.52
2023-08-11T13:03:52.986Z,33.52
2023-08-11T13:06:21.160Z,33.26
2023-08-11T13:08:51.600Z,33.11
2023-08-11T13:11:21.469Z,33.58
2023-08-11T13:13:49.522Z,33.41
2023-08-11T13:16:18.069Z,33.27
2023-08-11T13:18:46.412Z,33.23
2023-08-11T13:21:14.434Z,33.36
2023-08-11T13:23:42.570Z,32.80
2023-08-11T13:26:11.446Z,33.25
2023-08-11T13:28:41.218Z,32.85
2023-08-11T13:31:09.307Z,33.10
2023-08-11T13:33:37.681Z,32.73
2023-08-11T13:36:06.263Z,32.48
2023-08-11T13:38:34.316Z,32.79
2023-08-11T13:41:02.875Z,33.13
2023-08-11T13:43:30.852Z,32.46
2023-08-11T13:46:02.532Z,32.84
2023-08-11T13:48:31.041Z,32.83
2023-08-11T13:50:59.387Z,32.78
2023-08-11T13:53:27.471Z,32.48
2023-08-11T13:55:55.737Z,32.05
2023-08-11T13:58:23.684Z,32.07
2023-08-11T14:00:51.719Z,32.58
2023-08-11T14:03:21.384Z,32.21
2023-08-11T14:05:49.342Z,31.76
2023-08-11T14:08:17.326Z,30.17
2023-08-11T14:10:45.636Z,31.74
2023-08-11T14:13:13.751Z,31.84
2023-08-11T14:15:41.833Z,31.49
2023-08-11T14:18:10.164Z,31.47
2023-08-11T14:20:39.596Z,31.50
2023-08-11T14:23:07.569Z,31.37
2023-08-11T14:25:38.419Z,31.13
2023-08-11T14:28:06.633Z,31.37
2023-08-11T14:30:35.264Z,31.48
2023-08-11T14:33:03.627Z,30.97
2023-08-11T14:35:32.113Z,30.71
2023-08-11T14:38:01.494Z,31.24
2023-08-11T14:40:29.772Z,31.02
2023-08-11T14:42:57.787Z,30.86
2023-08-11T14:45:25.850Z,30.60
2023-08-11T14:47:54.142Z,30.55
2023-08-11T14:50:22.280Z,31.44
2023-08-11T14:52:50.525Z,30.13
2023-08-11T14:55:20.285Z,30.15
2023-08-11T14:57:48.344Z,30.76
2023-08-11T15:00:17.174Z,30.64
2023-08-11T15:02:46.373Z,30.50
2023-08-11T15:05:14.505Z,30.59
2023-08-11T15:07:43.542Z,30.39
2023-08-11T15:10:12.039Z,30.21
2023-08-11T15:12:41.498Z,30.35
2023-08-11T15:15:10.383Z,30.27
2023-08-11T15:17:38.702Z,30.30
2023-08-11T15:20:10.808Z,29.97
2023-08-11T15:22:39.169Z,29.28
2023-08-11T15:25:08.306Z,28.91
2023-08-11T15:27:38.531Z,28.64
2023-08-11T15:30:09.450Z,28.14
2023-08-11T15:32:37.542Z,28.02
2023-08-11T15:35:06.505Z,28.30
2023-08-11T15:37:34.816Z,28.00
2023-08-11T15:40:05.000Z,27.79
2023-08-11T15:42:33.139Z,27.67
2023-08-11T15:45:01.518Z,27.63
2023-08-11T15:47:31.002Z,27.52
2023-08-11T15:50:01.309Z,27.11
2023-08-11T15:52:30.469Z,27.32
2023-08-11T15:54:58.751Z,26.52
2023-08-11T15:57:27.205Z,27.64
2023-08-11T15:59:55.473Z,27.57
2023-08-11T16:02:24.054Z,26.65
2023-08-11T16:04:54.176Z,25.08
2023-08-11T16:07:22.245Z,24.77
2023-08-11T16:09:50.334Z,26.77
2023-08-11T16:12:18.557Z,26.52
2023-08-11T16:14:46.694Z,26.49
2023-08-11T16:17:14.817Z,26.47
2023-08-11T16:19:43.143Z,24.92
2023-08-11T16:22:13.871Z,26.57
2023-08-11T16:24:42.500Z,25.07
2023-08-11T16:27:10.641Z,26.33
2023-08-11T16:29:42.113Z,26.47
2023-08-11T16:32:11.255Z,25.82
2023-08-11T16:34:39.454Z,24.29
2023-08-11T16:37:07.696Z,25.95
2023-08-11T16:39:37.349Z,24.46
2023-08-11T16:42:06.395Z,26.59
2023-08-11T16:44:34.428Z,26.71
2023-08-11T16:47:02.745Z,26.76
2023-08-11T16:49:31.103Z,26.65
2023-08-11T16:51:59.317Z,26.33
2023-08-11T16:54:27.575Z,26.82
2023-08-11T16:56:57.781Z,26.54
2023-08-11T16:59:28.377Z,25.29
2023-08-11T17:01:57.663Z,26.89
2023-08-11T17:04:25.928Z,27.04
2023-08-11T17:06:53.975Z,27.70
2023-08-11T17:09:22.326Z,27.58
2023-08-11T17:11:50.451Z,27.95
2023-08-11T17:14:19.846Z,28.29
2023-08-11T17:16:48.179Z,27.91
2023-08-11T17:19:16.137Z,28.68
2023-08-11T17:21:44.547Z,28.73
2023-08-11T17:24:12.991Z,28.80
2023-08-11T17:26:41.085Z,28.97
2023-08-11T17:29:09.202Z,28.90
2023-08-11T17:31:38.899Z,28.79
2023-08-11T17:34:07.136Z,28.22
2023-08-11T17:36:36.741Z,28.24
2023-08-11T17:39:05.395Z,28.38
2023-08-11T17:41:33.616Z,28.42
2023-08-11T17:44:01.699Z,28.82
2023-08-11T17:46:30.168Z,29.13
2023-08-11T17:48:59.669Z,29.42
2023-08-11T17:51:28.220Z,29.57
2023-08-11T17:54:09.132Z,29.79
2023-08-11T17:56:38.439Z,30.03
2023-08-11T17:59:07.195Z,30.20
2023-08-11T18:01:35.433Z,30.41
2023-08-11T18:04:07.536Z,30.61
2023-08-11T18:06:37.077Z,30.73
2023-08-11T18:09:06.128Z,30.98
2023-08-11T18:11:36.035Z,31.17
2023-08-11T18:14:04.197Z,31.43
2023-08-11T18:16:33.792Z,31.60
2023-08-11T18:19:01.977Z,31.74
2023-08-11T18:21:31.416Z,31.89
2023-08-11T18:23:59.999Z,32.19
2023-08-11T18:26:30.106Z,32.12
2023-08-11T18:28:58.365Z,32.23
2023-08-11T18:31:28.221Z,32.33
2023-08-11T18:33:56.354Z,32.52
2023-08-11T18:36:24.402Z,32.65
2023-08-11T18:38:54.018Z,32.75
2023-08-11T18:41:22.235Z,33.25
2023-08-11T18:43:50.323Z,33.27
2023-08-11T18:46:20.791Z,33.37
2023-08-11T18:48:50.220Z,33.51
2023-08-11T18:51:18.748Z,33.52
2023-08-11T18:53:48.657Z,33.80
2023-08-11T18:56:19.346Z,34.10
2023-08-11T18:58:48.525Z,34.11
2023-08-11T19:01:17.043Z,34.07
2023-08-11T19:03:46.942Z,34.31
2023-08-11T19:06:17.900Z,34.33
2023-08-11T19:08:49.757Z,34.38
2023-08-11T19:11:23.660Z,34.43
2023-08-11T19:13:52.259Z,34.84
2023-08-11T19:16:20.816Z,34.82
2023-08-11T19:18:49.976Z,34.74
2023-08-11T19:21:18.459Z,34.88
2023-08-11T19:23:47.255Z,35.03
2023-08-11T19:26:15.334Z,35.22
2023-08-11T19:28:44.893Z,35.32
2023-08-11T19:31:13.517Z,35.49
2023-08-11T19:33:41.715Z,35.51
2023-08-11T19:36:09.920Z,35.56
2023-08-11T19:38:43.313Z,35.73
2023-08-11T19:41:12.826Z,36.02
2023-08-11T19:43:41.130Z,36.15
2023-08-11T19:46:12.690Z,36.09
2023-08-11T19:48:42.570Z,36.53
2023-08-11T19:51:10.817Z,36.06
2023-08-11T19:53:39.324Z,36.00
2023-08-11T19:56:08.209Z,36.48
2023-08-11T19:58:36.267Z,36.52
2023-08-11T20:01:08.821Z,36.50
2023-08-11T20:03:39.180Z,37.11
2023-08-11T20:06:07.844Z,36.73
2023-08-11T20:08:35.961Z,36.65
2023-08-11T20:11:04.519Z,36.90
2023-08-11T20:13:32.552Z,37.43
2023-08-11T20:16:04.219Z,37.61
2023-08-11T20:18:32.689Z,37.68
2023-08-11T20:21:02.034Z,37.68
2023-08-11T20:23:30.305Z,38.03
2023-08-11T20:25:58.554Z,37.55
2023-08-11T20:28:27.797Z,37.75
2023-08-11T20:31:01.764Z,37.77
2023-08-11T20:33:30.346Z,39.00
2023-08-11T20:35:59.643Z,38.68
2023-08-11T20:38:29.142Z,38.44
2023-08-11T20:41:00.130Z,38.39
2023-08-11T20:43:28.341Z,38.00
2023-08-11T20:45:56.394Z,38.08
2023-08-11T20:48:24.978Z,38.18
2023-08-11T20:50:53.498Z,38.12
2023-08-11T20:53:22.507Z,38.27
2023-08-11T20:55:52.300Z,38.91
2023-08-11T20:58:20.273Z,39.42
2023-08-11T21:00:48.408Z,39.46
2023-08-11T21:03:16.733Z,39.75
2023-08-11T21:05:44.915Z,40.32
2023-08-11T21:08:18.083Z,40.69
2023-08-11T21:10:47.534Z,42.02
2023-08-11T21:13:17.262Z,40.68
2023-08-11T21:15:45.473Z,40.96
2023-08-11T21:18:13.969Z,40.78
2023-08-11T21:20:42.179Z,40.81
2023-08-11T21:23:10.511Z,40.80
2023-08-11T21:25:38.786Z,40.92
2023-08-11T21:28:07.385Z,41.19
2023-08-11T21:30:37.256Z,41.20
2023-08-11T21:33:05.945Z,41.56
2023-08-11T21:35:34.010Z,41.06
2023-08-11T21:38:02.352Z,41.06
2023-08-11T21:40:30.971Z,41.13
2023-08-11T21:42:59.373Z,41.04
2023-08-11T21:45:27.404Z,40.91
2023-08-11T21:47:58.148Z,40.92
2023-08-11T21:50:27.306Z,41.54
2023-08-11T21:52:57.033Z,41.09
2023-08-11T21:55:26.298Z,41.28
2023-08-11T21:57:54.388Z,41.33
2023-08-11T22:00:22.898Z,41.32
2023-08-11T22:02:51.240Z,41.31
2023-08-11T22:05:29.966Z,41.32
2023-08-11T22:07:58.566Z,43.40
2023-08-11T22:10:26.798Z,41.40
2023-08-11T22:12:54.918Z,41.46
2023-08-11T22:15:23.185Z,41.53
2023-08-11T22:17:51.193Z,41.68
2023-08-11T22:20:19.206Z,41.76
2023-08-11T22:22:48.872Z,41.75
2023-08-11T22:25:20.152Z,42.03
2023-08-11T22:27:49.284Z,42.25
2023-08-11T22:30:18.159Z,42.22
2023-08-11T22:32:48.580Z,42.44
2023-08-11T22:35:16.968Z,42.61
2023-08-11T22:37:45.004Z,42.61
2023-08-11T22:40:14.694Z,42.64
2023-08-11T22:42:43.049Z,43.02
2023-08-11T22:45:11.243Z,42.87
2023-08-11T22:47:39.312Z,42.96
2023-08-11T22:50:10.149Z,43.01
2023-08-11T22:52:38.221Z,43.13
2023-08-11T22:55:07.151Z,43.06
2023-08-11T22:57:36.930Z,43.40
2023-08-11T23:00:09.957Z,43.56
2023-08-11T23:02:38.622Z,43.36
2023-08-11T23:05:09.230Z,43.36
2023-08-11T23:07:40.184Z,43.39
2023-08-11T23:10:10.000Z,43.61
2023-08-11T23:12:39.702Z,43.31
2023-08-11T23:15:08.522Z,43.35
2023-08-11T23:17:37.256Z,43.25
2023-08-11T23:20:06.552Z,43.50
2023-08-11T23:22:36.008Z,43.40
2023-08-11T23:25:04.920Z,43.48
2023-08-11T23:27:32.973Z,43.56
2023-08-11T23:30:03.699Z,43.74
2023-08-11T23:32:33.736Z,44.10
2023-08-11T23:35:02.240Z,43.67
2023-08-11T23:37:30.333Z,43.39
2023-08-11T23:39:59.457Z,43.42
2023-08-11T23:42:28.288Z,43.48
2023-08-11T23:44:56.255Z,43.61
2023-08-11T23:47:26.079Z,43.67
2023-08-11T23:49:54.209Z,43.65
2023-08-11T23:52:24.278Z,43.62
2023-08-11T23:54:54.114Z,43.92
2023-08-11T23:57:23.088Z,44.07
2023-08-11T23:59:51.154Z,44.09
